ADDS METAR Data INFO
IDs: Format: Raw Decoded Include TAF

Data at: 1459 UTC 11 Dec 2017

KJWN 111455Z AUTO 19003KT 10SM CLR 04/M01 A3011 RMK A01
KJWN 111435Z AUTO 00000KT 10SM CLR 02/M02 A3011 RMK A01
KJWN 111415Z AUTO 00000KT 10SM CLR 01/M02 A3012 RMK A01
KJWN 111355Z AUTO 00000KT 8SM CLR 00/M02 A3011 RMK A01
KJWN 111335Z AUTO 00000KT 10SM CLR M01/M03 A3012 RMK A01
KJWN 111315Z AUTO 00000KT 10SM CLR M02/M03 A3013 RMK A01
KJWN 111255Z AUTO 00000KT 10SM CLR M01/M03 A3013 RMK A01
KJWN 111235Z AUTO 00000KT 10SM CLR M01/M03 A3013 RMK A01
KJWN 111215Z AUTO 00000KT 10SM CLR M02/M03 A3013 RMK A01
KJWN 111155Z AUTO 00000KT 10SM CLR M02/M03 A3012 RMK A01
KJWN 111135Z AUTO 00000KT 10SM CLR M02/M04 A3013 RMK A01
KJWN 111115Z AUTO 00000KT 10SM CLR M01/M03 A3012 RMK A01
KJWN 111055Z AUTO 00000KT 10SM CLR M01/M03 A3012 RMK A01
KJWN 111035Z AUTO 00000KT 10SM CLR M00/M03 A3013 RMK A01
KJWN 111015Z AUTO 00000KT 10SM CLR M01/M03 A3013 RMK A01
KJWN 110955Z AUTO 00000KT 10SM CLR M00/M03 A3013 RMK A01
KJWN 110935Z AUTO 00000KT 10SM CLR 01/M02 A3013 RMK A01
KJWN 110915Z AUTO 00000KT 10SM CLR 01/M02 A3014 RMK A01
KJWN 110855Z AUTO 00000KT 10SM CLR 01/M03 A3014 RMK A01
KJWN 110835Z AUTO 00000KT 10SM CLR 01/M03 A3014 RMK A01
KJWN 110815Z AUTO 00000KT 10SM CLR 03/M04 A3014 RMK A01
KJWN 110755Z AUTO 00000KT 10SM CLR 05/M04 A3014 RMK A01
KJWN 110735Z AUTO 00000KT 10SM CLR 04/M04 A3015 RMK A01
KJWN 110715Z AUTO 00000KT 10SM CLR 05/M04 A3015 RMK A01
KJWN 110655Z AUTO 00000KT 10SM CLR 04/M04 A3014 RMK A01
KJWN 110635Z AUTO 00000KT 10SM CLR 05/M04 A3014 RMK A01
KJWN 110615Z AUTO 00000KT 10SM CLR 04/M04 A3014 RMK A01
KJWN 110555Z AUTO 00000KT 10SM CLR 04/M04 A3014 RMK A01
KJWN 110535Z AUTO 25005KT 10SM CLR 05/M04 A3015 RMK A01
KJWN 110515Z AUTO 25005KT 10SM CLR 05/M04 A3015 RMK A01
KJWN 110455Z AUTO 24007KT 10SM CLR 05/M04 A3015 RMK A01
KJWN 110435Z AUTO 24006KT 10SM CLR 05/M04 A3016 RMK A01
KJWN 110415Z AUTO 25006KT 10SM CLR 05/M05 A3016 RMK A01
KJWN 110355Z AUTO 24005KT 10SM CLR 05/M05 A3015 RMK A01
KJWN 110335Z AUTO 24006KT 10SM CLR 05/M05 A3015 RMK A01
KJWN 110315Z AUTO 24004KT 10SM CLR 05/M05 A3015 RMK A01
KJWN 110255Z AUTO 22004KT 10SM CLR 05/M05 A3015 RMK A01
KJWN 110235Z AUTO 21005KT 10SM CLR 04/M05 A3015 RMK A01
KJWN 110215Z AUTO 21005KT 10SM CLR 05/M06 A3015 RMK A01
KJWN 110155Z AUTO 21006KT 10SM CLR 05/M06 A3015 RMK A01
KJWN 110135Z AUTO 22005KT 10SM CLR 06/M06 A3014 RMK A01
KJWN 110115Z AUTO 23004KT 10SM CLR 06/M06 A3014 RMK A01
KJWN 110055Z AUTO 23006KT 10SM CLR 06/M06 A3014 RMK A01
KJWN 110035Z AUTO 23007KT 10SM CLR 07/M06 A3013 RMK A01
KJWN 110015Z AUTO 23006KT 10SM CLR 07/M06 A3012 RMK A01
KJWN 102355Z AUTO 22009KT 10SM CLR 07/M07 A3011 RMK A01
KJWN 102335Z AUTO 23011KT 10SM CLR 07/M07 A3011 RMK A01
KJWN 102315Z AUTO 22008KT 10SM CLR 06/M07 A3009 RMK A01
KJWN 102255Z AUTO 21008KT 10SM CLR 07/M08 A3009 RMK A01
KJWN 102235Z AUTO 22008KT 10SM CLR 08/M08 A3009 RMK A01
KJWN 102215Z AUTO 21011G17KT 10SM CLR 08/M07 A3009 RMK A01
KJWN 102155Z AUTO 20013KT 10SM CLR 09/M07 A3009 RMK A01
KJWN 102135Z AUTO 21012G18KT 10SM CLR 09/M08 A3010 RMK A01
KJWN 102115Z AUTO 22011G17KT 10SM CLR 09/M08 A3011 RMK A01
KJWN 102055Z AUTO 22010KT 10SM CLR 09/M08 A3011 RMK A01
KJWN 102035Z AUTO 22013KT 10SM CLR 09/M08 A3012 RMK A01
KJWN 102015Z AUTO 21011G17KT 10SM CLR 09/M08 A3012 RMK A01
KJWN 101955Z AUTO 21010G16KT 10SM CLR 09/M08 A3012 RMK A01
KJWN 101935Z AUTO 22011KT 10SM CLR 08/M07 A3013 RMK A01
KJWN 101915Z AUTO 22011G18KT 10SM CLR 08/M08 A3014 RMK A01
KJWN 101855Z AUTO 19009G15KT 10SM CLR 08/M06 A3015 RMK A01
KJWN 101835Z AUTO 21013KT 10SM CLR 07/M06 A3016 RMK A01
KJWN 101815Z AUTO 23008G14KT 10SM CLR 07/M07 A3017 RMK A01
KJWN 101755Z AUTO 23009KT 10SM CLR 06/M06 A3019 RMK A01
KJWN 101735Z AUTO 21011G17KT 10SM CLR 06/M06 A3021 RMK A01
KJWN 101715Z AUTO 25011KT 10SM CLR 05/M06 A3022 RMK A01
KJWN 101655Z AUTO 22011KT 10SM CLR 05/M06 A3022 RMK A01
KJWN 101635Z AUTO 22013KT 10SM CLR 04/M06 A3023 RMK A01
KJWN 101615Z AUTO 21014KT 10SM CLR 03/M06 A3023 RMK A01
KJWN 101555Z AUTO 20008KT 10SM CLR 03/M06 A3024 RMK A01
KJWN 101535Z AUTO 20011KT 10SM CLR 02/M06 A3024 RMK A01
KJWN 101515Z AUTO 20007KT 10SM CLR 00/M06 A3025 RMK A01
KJWN 101455Z AUTO 19006KT 10SM CLR M01/M06 A3026 RMK A01
KJWN 101435Z AUTO 19006KT 10SM CLR M02/M06 A3026 RMK A01
KJWN 101415Z AUTO 20004KT 10SM CLR M02/M06 A3026 RMK A01
KJWN 101355Z AUTO 00000KT 10SM CLR M03/M06 A3026 RMK A01
KJWN 101335Z AUTO 00000KT 10SM CLR M04/M07 A3026 RMK A01
KJWN 101315Z AUTO 00000KT 10SM CLR M06/M08 A3026 RMK A01
KJWN 101255Z AUTO 00000KT 10SM CLR M05/M07 A3026 RMK A01
KJWN 101235Z AUTO 00000KT 10SM CLR M05/M07 A3026 RMK A01
KJWN 101215Z AUTO 00000KT 10SM FEW022 FEW029 M05/M07 A3025 RMK A01
KJWN 101155Z AUTO 17003KT 10SM FEW022 M05/M07 A3024 RMK A01
KJWN 101135Z AUTO 00000KT 10SM CLR M05/M07 A3024 RMK A01
KJWN 101115Z AUTO 00000KT 10SM CLR M05/M07 A3023 RMK A01
KJWN 101055Z AUTO 16003KT 10SM CLR M04/M06 A3023 RMK A01
KJWN 101035Z AUTO 00000KT 10SM CLR M04/M07 A3023 RMK A01
KJWN 101015Z AUTO 00000KT 10SM CLR M04/M07 A3023 RMK A01
KJWN 100955Z AUTO 00000KT 10SM CLR M04/M06 A3023 RMK A01
KJWN 100935Z AUTO 00000KT 10SM CLR M03/M06 A3022 RMK A01
KJWN 100915Z AUTO 00000KT 10SM CLR M03/M06 A3023 RMK A01
KJWN 100855Z AUTO 00000KT 10SM CLR M03/M06 A3023 RMK A01
KJWN 100835Z AUTO 00000KT 10SM CLR M03/M07 A3023 RMK A01
KJWN 100815Z AUTO 00000KT 10SM CLR M03/M07 A3023 RMK A01
KJWN 100755Z AUTO 00000KT 10SM CLR M03/M08 A3022 RMK A01
KJWN 100735Z AUTO 00000KT 10SM CLR M02/M08 A3022 RMK A01
KJWN 100715Z AUTO 00000KT 10SM FEW040 M02/M08 A3022 RMK A01
KJWN 100655Z AUTO 31004KT 10SM CLR M02/M08 A3021 RMK A01
KJWN 100635Z AUTO 30004KT 10SM CLR M02/M08 A3021 RMK A01
KJWN 100615Z AUTO 31005KT 10SM CLR M02/M08 A3021 RMK A01
KJWN 100555Z AUTO 31005KT 10SM CLR M02/M08 A3021 RMK A01
KJWN 100535Z AUTO 31005KT 10SM CLR M02/M08 A3021 RMK A01
KJWN 100515Z AUTO 31005KT 10SM CLR M01/M08 A3020 RMK A01
KJWN 100455Z AUTO 00000KT 10SM CLR M01/M08 A3020 RMK A01
KJWN 100435Z AUTO 31003KT 10SM CLR M01/M08 A3020 RMK A01
KJWN 100415Z AUTO 31004KT 10SM SCT048 M01/M08 A3019 RMK A01
KJWN 100355Z AUTO 31005KT 10SM BKN048 M00/M08 A3019 RMK A01
KJWN 100335Z AUTO 31005KT 10SM OVC048 M00/M08 A3018 RMK A01
KJWN 100315Z AUTO 32005KT 10SM BKN049 00/M08 A3017 RMK A01